Time;durP1;ratioP1;P1;durP2;ratioP2;P2;SDS_P1;SDS_P2;PMS_P1;PMS_P2;Temp;Humidity;BMP_temperature;BMP_pressure;BME280_temperature;BME280_humidity;BME280_pressure;Samples;Min_cycle;Max_cycle;Signal;HPM_P1;HPM_P2
2023/05/25 00:00:46;;;;;;;5.70;4.90;;;;;;;12.75;88.15;95673.45;106587;1275;22835;-75
2023/05/25 00:03:31;;;;;;;7.50;5.00;;;;;;;12.74;88.91;95673.45;106816;1275;22580;-75
2023/05/25 00:06:04;;;;;;;10.80;6.10;;;;;;;12.74;89.20;95670.30;106596;1275;25340;-75
2023/05/25 00:08:32;;;;;;;8.20;5.80;;;;;;;12.73;89.41;95675.27;106479;1275;25195;-75
2023/05/25 00:11:00;;;;;;;9.50;6.40;;;;;;;12.78;89.58;95666.52;106662;1275;22506;-75
2023/05/25 00:13:29;;;;;;;10.00;6.00;;;;;;;12.83;89.77;95666.36;106657;1275;24222;-75
2023/05/25 00:15:57;;;;;;;9.60;5.50;;;;;;;12.84;89.42;95666.67;106572;1275;24407;-75
2023/05/25 00:18:25;;;;;;;7.50;5.30;;;;;;;12.84;89.51;95668.98;106589;1272;22523;-75
2023/05/25 00:20:54;;;;;;;6.10;4.30;;;;;;;12.81;88.93;95672.08;106626;1275;24346;-75
2023/05/25 00:23:22;;;;;;;6.90;4.80;;;;;;;12.81;89.54;95672.06;106623;1275;25294;-75
2023/05/25 00:25:50;;;;;;;11.10;5.10;;;;;;;12.87;89.81;95673.48;106595;1275;25411;-75
2023/05/25 00:28:18;;;;;;;7.90;5.30;;;;;;;12.88;89.56;95676.83;106565;1275;25284;-75
2023/05/25 00:30:47;;;;;;;9.00;4.60;;;;;;;12.87;89.39;95674.92;106582;1275;24386;-75
2023/05/25 00:33:15;;;;;;;5.80;3.50;;;;;;;12.81;88.49;95675.23;106597;1270;22510;-75
2023/05/25 00:35:45;;;;;;;8.30;3.30;;;;;;;12.73;88.41;95675.97;106571;1275;22507;-75
2023/05/25 00:38:16;;;;;;;4.20;3.60;;;;;;;12.69;89.04;95670.27;106583;1275;25396;-75
2023/05/25 00:40:45;;;;;;;6.00;4.00;;;;;;;12.67;89.31;95675.79;106639;1275;25337;-75
2023/05/25 00:43:13;;;;;;;7.50;4.20;;;;;;;12.75;89.91;95673.45;106644;1275;25464;-75
2023/05/25 00:45:41;;;;;;;8.10;4.10;;;;;;;12.82;89.28;95672.21;106584;1275;22511;-75
2023/05/25 00:48:11;;;;;;;4.30;3.60;;;;;;;12.77;88.31;95672.17;106605;1275;25303;-75
2023/05/25 00:50:41;;;;;;;8.90;3.50;;;;;;;12.70;87.80;95676.40;106557;1275;22639;-75
2023/05/25 00:53:11;;;;;;;4.90;3.70;;;;;;;12.60;87.89;95673.50;106637;1275;22517;-75
2023/05/25 00:55:47;;;;;;;4.40;3.20;;;;;;;12.55;88.03;95678.37;106586;1275;24252;-75
2023/05/25 00:58:19;;;;;;;24.90;3.60;;;;;;;12.52;88.15;95682.50;106651;1275;22763;-75
2023/05/25 01:00:50;;;;;;;4.30;3.30;;;;;;;12.49;88.25;95684.16;106603;1275;23146;-75
2023/05/25 01:03:21;;;;;;;8.90;3.40;;;;;;;12.50;88.59;95687.30;106664;1275;22555;-75
2023/05/25 01:05:53;;;;;;;5.20;3.40;;;;;;;12.46;87.98;95684.41;106639;1275;22813;-75
2023/05/25 01:08:23;;;;;;;3.60;2.90;;;;;;;12.43;87.77;95687.50;106618;1275;22517;-75
2023/05/25 01:10:52;;;;;;;6.40;3.40;;;;;;;12.30;87.22;95694.16;106645;1275;22640;-75
2023/05/25 01:13:21;;;;;;;6.00;2.90;;;;;;;12.14;87.95;95694.88;106611;1275;22937;-75
2023/05/25 01:15:51;;;;;;;8.20;3.40;;;;;;;12.09;87.93;95694.65;106600;1275;25352;-75
2023/05/25 01:18:19;;;;;;;6.80;3.20;;;;;;;12.08;88.15;95693.59;106677;1275;25322;-75
2023/05/25 01:21:00;;;;;;;5.40;3.40;;;;;;;12.11;88.17;95691.77;106570;1275;23145;-75
2023/05/25 01:23:35;;;;;;;5.20;3.30;;;;;;;12.05;87.79;95690.13;106934;1275;25214;-75
2023/05/25 01:26:12;;;;;;;4.00;3.60;;;;;;;12.00;87.88;95693.09;106613;1275;25402;-75
2023/05/25 01:28:45;;;;;;;5.60;3.70;;;;;;;11.97;87.66;95688.91;106027;1275;591571;-74
2023/05/25 01:31:15;;;;;;;3.70;3.40;;;;;;;11.93;87.57;95689.89;106602;1275;22644;-75
2023/05/25 01:33:44;;;;;;;5.70;3.60;;;;;;;11.86;87.44;95691.59;106621;1275;22537;-75
2023/05/25 01:36:12;;;;;;;5.00;3.30;;;;;;;11.78;87.30;95694.60;106679;1275;22520;-75
2023/05/25 01:38:40;;;;;;;6.90;4.00;;;;;;;11.67;87.44;95696.77;106576;1275;24364;-75
2023/05/25 01:41:10;;;;;;;7.70;3.30;;;;;;;11.55;87.39;95694.19;106596;1275;22575;-75
2023/05/25 01:43:39;;;;;;;5.00;3.80;;;;;;;11.44;88.20;95698.82;106586;1266;23027;-75
2023/05/25 01:46:35;;;;;;;6.30;3.40;;;;;;;11.38;89.14;95698.06;106602;1275;24246;-75
2023/05/25 01:49:16;;;;;;;5.00;3.70;;;;;;;11.37;89.21;95702.48;106588;1275;25353;-75
2023/05/25 01:52:21;;;;;;;8.50;3.20;;;;;;;11.35;89.20;95697.23;106621;1275;25342;-75
2023/05/25 01:55:01;;;;;;;9.40;3.60;;;;;;;11.25;89.29;95701.31;106989;1275;25395;-75
2023/05/25 01:57:35;;;;;;;4.00;3.30;;;;;;;11.19;88.74;95697.91;106583;1275;25386;-75
2023/05/25 02:00:05;;;;;;;8.60;3.80;;;;;;;11.14;89.35;95695.88;106614;1275;24196;-75
2023/05/25 02:02:42;;;;;;;4.40;3.10;;;;;;;11.13;89.62;95696.27;106595;1275;24222;-75
2023/05/25 02:05:11;;;;;;;3.90;3.30;;;;;;;11.12;89.31;95695.56;106587;1275;22787;-75
2023/05/25 02:07:39;;;;;;;6.70;3.60;;;;;;;11.09;89.16;95697.75;106588;1275;22783;-75
2023/05/25 02:10:08;;;;;;;4.90;3.10;;;;;;;11.12;89.44;95698.05;106597;1275;25392;-75
2023/05/25 02:12:36;;;;;;;7.50;3.30;;;;;;;11.19;89.94;95699.14;106550;1275;25389;-75
2023/05/25 02:15:05;;;;;;;5.30;3.50;;;;;;;11.23;89.84;95704.35;106576;1275;25761;-76
2023/05/25 02:17:35;;;;;;;7.30;3.10;;;;;;;11.31;89.81;95702.61;106652;1275;26497;-75
2023/05/25 02:20:07;;;;;;;5.20;3.30;;;;;;;11.36;90.05;95703.38;106654;1275;22517;-76
2023/05/25 02:22:36;;;;;;;4.00;3.10;;;;;;;11.39;89.96;95701.73;106640;1275;22786;-75
2023/05/25 02:25:07;;;;;;;5.40;3.10;;;;;;;11.39;90.02;95701.04;106634;1275;25214;-75
2023/05/25 02:27:36;;;;;;;4.00;3.00;;;;;;;11.37;90.38;95702.13;106677;1275;22517;-75
2023/05/25 02:30:06;;;;;;;8.10;3.40;;;;;;;11.45;90.79;95701.09;106945;1275;25236;-75
2023/05/25 02:32:35;;;;;;;5.00;3.20;;;;;;;11.53;90.90;95700.05;106999;1275;22524;-75
2023/05/25 02:35:04;;;;;;;5.40;3.20;;;;;;;11.62;90.52;95700.73;106570;1266;24053;-75
2023/05/25 02:37:32;;;;;;;7.70;3.40;;;;;;;11.59;89.47;95702.73;106558;1275;25262;-75
2023/05/25 02:40:00;;;;;;;3.60;3.30;;;;;;;11.53;89.38;95701.28;106599;1275;25262;-76
2023/05/25 02:42:29;;;;;;;7.40;2.90;;;;;;;11.47;89.37;95704.56;106621;1275;22522;-75
2023/05/25 02:44:58;;;;;;;3.30;2.90;;;;;;;11.46;89.49;95713.05;106880;1275;22676;-75
2023/05/25 02:47:26;;;;;;;5.20;3.20;;;;;;;11.47;89.45;95709.51;106725;1275;22724;-75
2023/05/25 02:49:54;;;;;;;4.50;3.30;;;;;;;11.44;89.34;95712.91;106732;1271;25323;-76
2023/05/25 02:52:24;;;;;;;5.60;3.30;;;;;;;11.40;89.30;95714.39;106611;1268;23231;-75
2023/05/25 02:54:53;;;;;;;6.80;2.80;;;;;;;11.45;89.87;95713.95;106640;1275;25330;-76
2023/05/25 02:57:27;;;;;;;3.40;3.10;;;;;;;11.54;89.96;95718.17;106627;1275;25399;-76
2023/05/25 02:59:57;;;;;;;5.30;3.20;;;;;;;11.65;90.21;95715.64;106627;1275;22512;-76
2023/05/25 03:02:25;;;;;;;7.50;2.90;;;;;;;11.74;89.64;95718.45;106573;1275;22528;-75
2023/05/25 03:04:54;;;;;;;3.20;2.90;;;;;;;11.79;89.50;95720.83;106799;1275;24249;-75
2023/05/25 03:07:25;;;;;;;5.40;2.80;;;;;;;11.78;88.84;95725.26;106932;1275;22844;-75
2023/05/25 03:09:54;;;;;;;4.40;3.00;;;;;;;11.75;88.56;95726.90;106742;1275;22512;-75
2023/05/25 03:12:22;;;;;;;3.50;2.90;;;;;;;11.76;88.75;95718.06;106615;1275;24258;-75
2023/05/25 03:14:51;;;;;;;3.60;3.20;;;;;;;11.80;88.93;95721.70;106626;1275;22524;-76
2023/05/25 03:17:19;;;;;;;10.80;3.80;;;;;;;11.79;88.93;95719.41;106576;1275;22530;-75
2023/05/25 03:19:48;;;;;;;5.00;3.10;;;;;;;11.84;89.67;95716.67;106586;1275;25323;-75
2023/05/25 03:22:16;;;;;;;5.90;3.70;;;;;;;11.99;90.00;95717.96;106586;1275;22517;-75
2023/05/25 03:24:45;;;;;;;3.50;3.10;;;;;;;12.03;88.61;95717.17;106623;1275;22626;-75
2023/05/25 03:27:14;;;;;;;5.50;3.80;;;;;;;11.95;88.38;95719.27;106556;1275;22533;-75
2023/05/25 03:29:42;;;;;;;4.00;3.40;;;;;;;12.01;88.92;95717.39;106572;1275;25207;-75
2023/05/25 03:32:11;;;;;;;6.60;3.60;;;;;;;12.08;89.24;95716.34;106664;1275;25466;-75
2023/05/25 03:34:39;;;;;;;5.20;3.40;;;;;;;12.18;89.31;95724.93;106744;1275;22544;-75
2023/05/25 03:37:08;;;;;;;6.50;4.00;;;;;;;12.28;88.98;95724.52;106731;1275;24355;-75
2023/05/25 03:39:37;;;;;;;10.00;4.20;;;;;;;12.32;88.37;95723.36;106691;1275;25399;-75
2023/05/25 03:42:06;;;;;;;5.50;4.40;;;;;;;12.31;87.97;95724.64;106621;1275;22653;-75
2023/05/25 03:44:34;;;;;;;5.50;4.00;;;;;;;12.24;88.18;95726.75;106594;1266;22915;-75
2023/05/25 03:47:03;;;;;;;4.30;3.60;;;;;;;12.30;88.60;95731.55;106593;1275;22749;-75
2023/05/25 03:49:31;;;;;;;7.80;4.80;;;;;;;12.29;88.39;95732.80;106662;1275;22520;-76
2023/05/25 03:52:00;;;;;;;5.70;4.20;;;;;;;12.32;88.36;95738.19;106818;1275;25539;-74
2023/05/25 03:54:28;;;;;;;4.40;4.00;;;;;;;12.26;87.77;95738.15;106587;1275;22584;-75
2023/05/25 03:56:58;;;;;;;4.40;3.60;;;;;;;12.21;87.77;95740.75;106625;1275;22640;-75
2023/05/25 03:59:26;;;;;;;4.80;4.30;;;;;;;12.13;87.66;95741.45;106612;1275;25245;-75
2023/05/25 04:01:54;;;;;;;4.40;4.00;;;;;;;12.10;88.14;95741.70;106593;1275;24350;-75
2023/05/25 04:04:22;;;;;;;4.30;3.50;;;;;;;12.07;88.80;95742.63;106578;1275;26501;-75
2023/05/25 04:06:51;;;;;;;5.70;4.00;;;;;;;12.06;89.28;95743.70;106941;1275;22528;-75
2023/05/25 04:09:20;;;;;;;6.00;4.60;;;;;;;12.13;89.86;95744.63;106608;1275;22527;-75
2023/05/25 04:11:49;;;;;;;5.30;4.10;;;;;;;12.17;89.89;95742.23;106765;1275;25379;-75
2023/05/25 04:14:19;;;;;;;4.80;4.30;;;;;;;12.17;89.83;95744.88;106623;1275;24316;-75
2023/05/25 04:16:48;;;;;;;5.00;4.10;;;;;;;12.23;90.19;95740.52;106646;1275;22683;-75
2023/05/25 04:19:16;;;;;;;6.00;4.20;;;;;;;12.29;90.48;95742.15;106545;1275;27096;-75
2023/05/25 04:21:44;;;;;;;6.40;4.60;;;;;;;12.36;90.53;95743.58;106540;1275;22648;-76
2023/05/25 04:24:13;;;;;;;5.70;4.20;;;;;;;12.44;90.61;95742.33;106602;1275;24240;-75
2023/05/25 04:26:42;;;;;;;5.00;4.50;;;;;;;12.55;90.53;95746.14;106774;1275;22524;-75
2023/05/25 04:29:12;;;;;;;6.60;4.30;;;;;;;12.61;90.23;95743.69;106885;1275;22511;-76
2023/05/25 04:32:03;;;;;;;6.00;4.20;;;;;;;12.68;90.02;95739.30;106691;1266;25457;-76
2023/05/25 04:34:38;;;;;;;5.90;4.70;;;;;;;12.78;90.15;95744.50;106599;1275;24330;-76
2023/05/25 04:37:14;;;;;;;7.20;4.00;;;;;;;12.87;89.98;95745.52;106611;1275;25293;-76
2023/05/25 04:39:42;;;;;;;6.40;4.60;;;;;;;12.93;89.95;95749.08;106615;1275;24266;-75
2023/05/25 04:42:11;;;;;;;4.90;4.30;;;;;;;13.04;90.36;95747.39;106526;1275;22637;-76
2023/05/25 04:44:40;;;;;;;6.60;4.00;;;;;;;13.15;90.51;95750.46;106980;1275;25265;-76
2023/05/25 04:47:09;;;;;;;12.00;4.30;;;;;;;13.27;90.40;95745.04;106605;1275;22654;-76
2023/05/25 04:49:38;;;;;;;7.50;4.00;;;;;;;13.38;90.39;95750.77;106647;1275;22514;-76
2023/05/25 04:52:08;;;;;;;7.60;4.10;;;;;;;13.53;90.33;95749.31;106651;1275;25396;-76
2023/05/25 04:54:37;;;;;;;3.80;3.40;;;;;;;13.63;89.92;95748.48;106631;1266;24200;-76
2023/05/25 04:57:05;;;;;;;5.40;3.40;;;;;;;13.67;89.53;95750.68;106605;1275;25271;-76
2023/05/25 04:59:34;;;;;;;4.30;3.30;;;;;;;13.69;89.45;95752.92;106805;1275;24255;-76
2023/05/25 05:02:04;;;;;;;7.00;3.50;;;;;;;13.70;89.41;95755.54;106627;1275;22729;-76
2023/05/25 05:04:32;;;;;;;4.40;2.60;;;;;;;13.69;89.13;95754.14;106547;1275;22986;-76
2023/05/25 05:07:02;;;;;;;4.30;3.20;;;;;;;13.71;89.04;95759.21;106792;1275;25211;-76
2023/05/25 05:09:31;;;;;;;5.40;3.60;;;;;;;13.73;88.97;95758.27;106668;1275;25390;-76
2023/05/25 05:12:01;;;;;;;8.40;4.40;;;;;;;13.78;89.21;95756.89;106633;1275;24311;-77
2023/05/25 05:14:35;;;;;;;4.40;3.70;;;;;;;13.91;89.62;95750.68;106850;1275;25218;-76
2023/05/25 05:17:04;;;;;;;3.50;3.10;;;;;;;13.99;88.89;95747.99;106609;1275;25382;-76
2023/05/25 05:19:32;;;;;;;5.30;3.30;;;;;;;14.01;88.69;95751.10;106702;1275;22524;-76
2023/05/25 05:22:02;;;;;;;6.10;3.40;;;;;;;14.12;89.32;95753.96;106629;1275;22600;-76
2023/05/25 05:24:30;;;;;;;6.00;4.00;;;;;;;14.24;89.79;95753.06;106948;1275;23149;-76
2023/05/25 05:26:58;;;;;;;5.50;3.60;;;;;;;14.35;89.42;95751.50;106771;1275;24229;-75
2023/05/25 05:29:42;;;;;;;5.40;3.70;;;;;;;14.39;89.05;95754.21;106593;1275;22643;-76
2023/05/25 05:32:10;;;;;;;5.40;4.10;;;;;;;14.45;88.91;95759.14;106808;1276;25358;-76
2023/05/25 05:34:38;;;;;;;10.30;4.40;;;;;;;14.53;88.96;95758.56;106588;1275;25396;-76
2023/05/25 05:37:14;;;;;;;4.70;4.20;;;;;;;14.60;88.12;95762.44;106583;1275;22525;-77
2023/05/25 05:39:42;;;;;;;4.70;4.30;;;;;;;14.63;87.93;95759.85;106676;1276;24251;-76
2023/05/25 05:42:10;;;;;;;5.80;4.30;;;;;;;14.78;88.65;95759.73;106884;1275;22730;-76
2023/05/25 05:44:39;;;;;;;6.60;3.70;;;;;;;14.97;88.58;95757.35;106595;1275;22533;-77
2023/05/25 05:47:07;;;;;;;4.10;3.70;;;;;;;15.15;88.80;95756.56;106566;1275;22690;-77
2023/05/25 05:49:38;;;;;;;8.00;4.30;;;;;;;15.35;88.65;95757.98;106585;1275;24205;-78
2023/05/25 05:52:09;;;;;;;7.80;4.00;;;;;;;15.52;88.21;95758.30;106623;1275;22524;-75
2023/05/25 05:54:37;;;;;;;9.20;4.50;;;;;;;15.60;86.89;95762.98;106961;1275;22814;-74
2023/05/25 05:57:10;;;;;;;9.10;3.80;;;;;;;15.69;86.39;95762.49;106846;1276;25500;-74
2023/05/25 05:59:37;;;;;;;8.30;4.20;;;;;;;15.74;85.84;95760.39;106649;1275;25393;-74
2023/05/25 06:02:07;;;;;;;4.90;3.90;;;;;;;15.85;86.18;95760.52;106676;1275;22564;-73
2023/05/25 06:04:37;;;;;;;7.10;4.10;;;;;;;16.02;85.97;95763.09;106748;1275;22521;-74
2023/05/25 06:07:05;;;;;;;5.80;4.40;;;;;;;16.26;86.26;95758.12;106709;1275;25214;-74
2023/05/25 06:09:35;;;;;;;5.50;4.20;;;;;;;16.50;85.93;95761.08;106602;1275;23133;-74
2023/05/25 06:12:04;;;;;;;5.70;4.00;;;;;;;16.67;84.96;95759.16;106590;1275;25393;-74
2023/05/25 06:14:32;;;;;;;5.10;3.90;;;;;;;16.82;84.79;95753.42;106600;1275;22593;-73
2023/05/25 06:17:02;;;;;;;4.80;4.30;;;;;;;16.99;84.77;95746.71;106569;1275;25494;-74
2023/05/25 06:19:31;;;;;;;5.90;4.30;;;;;;;17.14;84.52;95747.67;106627;1275;22531;-74
2023/05/25 06:21:59;;;;;;;5.70;4.20;;;;;;;17.24;83.98;95750.81;106594;1275;24213;-74
2023/05/25 06:24:27;;;;;;;6.20;4.90;;;;;;;17.31;83.05;95751.95;106585;1275;22623;-74
2023/05/25 06:26:55;;;;;;;6.00;4.60;;;;;;;17.38;83.21;95756.44;106830;1275;22506;-73
2023/05/25 06:29:23;;;;;;;5.20;4.30;;;;;;;17.49;83.03;95757.73;106682;1275;22540;-74
2023/05/25 06:31:51;;;;;;;7.10;4.50;;;;;;;17.55;82.34;95759.80;106576;1275;22653;-74
2023/05/25 06:34:19;;;;;;;5.90;4.70;;;;;;;17.55;81.77;95760.34;106571;1275;25354;-74
2023/05/25 06:36:48;;;;;;;9.20;5.10;;;;;;;17.53;81.66;95762.36;106600;1275;22963;-74
2023/05/25 06:39:16;;;;;;;5.80;4.50;;;;;;;17.55;81.66;95763.17;106804;1275;24230;-74
2023/05/25 06:41:44;;;;;;;6.80;4.50;;;;;;;17.56;81.35;95763.14;106586;1275;25469;-74
2023/05/25 06:44:15;;;;;;;6.00;4.20;;;;;;;17.57;81.11;95769.70;106578;1275;25393;-74
2023/05/25 06:46:46;;;;;;;5.70;4.80;;;;;;;17.60;81.07;95761.36;106623;1267;22772;-73
2023/05/25 06:49:15;;;;;;;5.70;4.10;;;;;;;17.64;80.30;95763.51;106710;1267;22528;-73
2023/05/25 06:51:44;;;;;;;5.20;4.60;;;;;;;17.69;78.87;95761.65;106664;1269;22634;-73
2023/05/25 06:54:13;;;;;;;5.70;3.90;;;;;;;17.80;79.04;95761.59;106720;1269;23029;-73
2023/05/25 06:56:42;;;;;;;6.80;4.90;;;;;;;17.98;78.92;95762.20;106537;1267;24288;-70
2023/05/25 06:59:10;;;;;;;8.20;4.50;;;;;;;18.14;78.82;95766.64;106672;1273;22683;-74
2023/05/25 07:01:39;;;;;;;5.60;3.90;;;;;;;18.33;78.70;95767.37;107761;1275;25313;-71
2023/05/25 07:04:07;;;;;;;5.20;4.10;;;;;;;18.58;78.89;95766.59;106517;1273;22574;-78
2023/05/25 07:06:35;;;;;;;5.40;3.90;;;;;;;18.78;75.57;95765.98;106571;1272;24278;-73
2023/05/25 07:09:03;;;;;;;8.10;4.30;;;;;;;18.95;73.10;95769.26;106580;1275;22510;-72
2023/05/25 07:11:31;;;;;;;7.30;4.10;;;;;;;19.09;72.88;95774.14;106725;1269;22781;-71
2023/05/25 07:14:00;;;;;;;5.00;4.00;;;;;;;19.23;72.91;95774.86;106930;1270;25636;-74
2023/05/25 07:16:28;;;;;;;5.50;4.40;;;;;;;19.37;71.42;95770.41;106567;1275;22525;-74
2023/05/25 07:18:56;;;;;;;5.50;4.30;;;;;;;19.47;71.25;95768.66;106745;1273;22644;-73
2023/05/25 07:21:32;;;;;;;6.20;4.00;;;;;;;19.58;69.80;95769.00;106541;1270;24236;-72
2023/05/25 07:24:00;;;;;;;;;;;;;;;19.66;68.65;95766.63;106518;1273;22614;-73
2023/05/25 07:26:33;;;;;;;6.00;3.50;;;;;;;19.75;70.01;95765.30;106783;1275;24384;-71
2023/05/25 07:29:01;;;;;;;10.10;3.50;;;;;;;19.89;69.85;95767.79;106691;1275;22534;-74
2023/05/25 07:31:29;;;;;;;9.60;3.80;;;;;;;19.97;69.01;95766.27;106655;1272;24274;-73
2023/05/25 07:33:57;;;;;;;4.80;3.60;;;;;;;20.02;66.99;95765.80;106626;1271;24423;-74
2023/05/25 07:36:25;;;;;;;3.70;3.10;;;;;;;20.10;67.58;95767.92;106640;1270;22518;-74
2023/05/25 07:38:53;;;;;;;4.10;3.20;;;;;;;20.24;67.93;95767.15;106769;1269;24197;-74
2023/05/25 07:41:22;;;;;;;4.30;3.20;;;;;;;20.33;67.29;95768.48;106762;1273;22763;-74
2023/05/25 07:43:51;;;;;;;6.10;3.10;;;;;;;20.39;64.94;95769.20;106573;1272;24400;-74
2023/05/25 07:46:23;;;;;;;3.80;3.20;;;;;;;20.43;64.50;95767.05;106609;1267;22587;-74
2023/05/25 07:48:53;;;;;;;3.00;2.70;;;;;;;20.49;64.14;95765.44;106783;1270;22518;-74
2023/05/25 07:51:22;;;;;;;5.90;3.00;;;;;;;20.56;64.15;95765.77;106765;1267;24064;-74
2023/05/25 07:53:52;;;;;;;5.70;2.90;;;;;;;20.63;62.09;95766.67;106758;1273;22529;-73
2023/05/25 07:56:21;;;;;;;3.70;3.00;;;;;;;20.72;62.09;95763.81;106685;1268;22520;-72
2023/05/25 07:58:49;;;;;;;4.30;3.00;;;;;;;20.84;62.53;95760.14;106878;1275;22513;-73
2023/05/25 08:01:18;;;;;;;3.90;3.40;;;;;;;20.96;61.54;95757.33;107005;1275;24219;-73
2023/05/25 08:03:46;;;;;;;6.10;3.10;;;;;;;21.10;61.80;95754.69;107012;1275;22525;-72
2023/05/25 08:06:17;;;;;;;3.00;2.50;;;;;;;21.26;61.41;95755.73;107035;1275;25374;-73
2023/05/25 08:08:46;;;;;;;2.70;2.40;;;;;;;21.32;57.72;95752.02;106700;1275;25318;-73
2023/05/25 08:11:18;;;;;;;3.80;2.80;;;;;;;21.40;57.97;95757.45;106645;1275;22638;-72
2023/05/25 08:13:46;;;;;;;6.30;2.90;;;;;;;21.56;58.89;95751.85;106511;1275;22570;-72
2023/05/25 08:16:14;;;;;;;3.40;2.70;;;;;;;21.69;58.69;95750.73;106548;1275;23909;-71
2023/05/25 08:18:45;;;;;;;5.00;2.90;;;;;;;21.83;57.55;95751.88;106543;1275;25386;-73
2023/05/25 08:21:14;;;;;;;3.40;2.60;;;;;;;21.74;54.38;95754.77;106624;1275;22518;-73
2023/05/25 08:23:42;;;;;;;3.10;2.80;;;;;;;21.60;54.82;95752.52;106664;1275;25309;-73
2023/05/25 08:26:10;;;;;;;3.60;2.60;;;;;;;21.53;54.64;95750.43;106639;1275;24337;-73
2023/05/25 08:29:00;;;;;;;6.80;3.00;;;;;;;21.64;56.72;95754.29;106675;1273;22652;-73
2023/05/25 08:31:31;;;;;;;3.20;2.90;;;;;;;21.74;56.09;95749.52;107053;1275;22782;-74
2023/05/25 08:34:00;;;;;;;3.50;2.70;;;;;;;21.84;55.47;95755.58;106773;1275;24188;-72
2023/05/25 08:36:28;;;;;;;3.20;2.80;;;;;;;21.87;55.13;95756.10;106798;1275;23363;-74
2023/05/25 08:38:56;;;;;;;5.30;2.90;;;;;;;21.93;55.62;95759.85;106698;1275;25569;-74
2023/05/25 08:41:24;;;;;;;4.60;2.90;;;;;;;22.03;54.56;95760.84;106594;1275;22708;-74
2023/05/25 08:43:53;;;;;;;6.00;2.70;;;;;;;22.10;55.55;95765.81;106645;1275;22563;-73
2023/05/25 08:46:29;;;;;;;4.00;3.30;;;;;;;22.18;54.95;95759.25;106751;1275;22783;-74
2023/05/25 08:49:17;;;;;;;5.80;3.10;;;;;;;22.15;56.00;95762.08;106784;1275;25459;-74
2023/05/25 08:51:50;;;;;;;3.00;2.70;;;;;;;22.28;56.28;95763.83;106704;1275;24215;-74
2023/05/25 08:54:23;;;;;;;4.00;3.10;;;;;;;22.34;55.07;95761.11;106749;1275;22609;-74
2023/05/25 08:56:53;;;;;;;;;;;;;;;22.35;55.52;95763.55;106936;1275;25332;-74
2023/05/25 08:59:27;;;;;;;5.50;3.10;;;;;;;22.41;55.23;95761.94;106562;1275;22798;-73
2023/05/25 09:02:05;;;;;;;3.90;3.10;;;;;;;22.52;55.05;95760.52;106564;1275;22632;-73
2023/05/25 09:04:33;;;;;;;3.70;2.80;;;;;;;22.62;53.71;95758.66;106710;1275;22518;-74
2023/05/25 09:07:03;;;;;;;4.80;3.10;;;;;;;22.64;53.28;95755.98;106732;1275;23376;-74
2023/05/25 09:09:39;;;;;;;3.30;3.00;;;;;;;22.83;54.74;95756.73;106614;1275;22570;-73
2023/05/25 09:12:08;;;;;;;5.10;3.20;;;;;;;22.96;53.13;95753.09;106547;1272;22656;-73
2023/05/25 09:14:36;;;;;;;3.50;2.70;;;;;;;23.06;53.12;95753.11;106773;1257;25245;-72
2023/05/25 09:17:05;;;;;;;3.70;2.70;;;;;;;23.12;52.54;95754.91;106739;1275;22634;-74
2023/05/25 09:19:35;;;;;;;5.30;2.90;;;;;;;23.21;52.65;95757.18;106733;1275;24355;-75
2023/05/25 09:22:03;;;;;;;3.20;2.90;;;;;;;23.40;52.35;95752.48;106663;1275;25312;-74
2023/05/25 09:24:44;;;;;;;3.80;2.90;;;;;;;23.61;51.66;95756.33;106658;1275;22598;-73
2023/05/25 09:27:18;;;;;;;3.20;2.80;;;;;;;23.66;49.27;95757.20;106739;1275;25268;-73
2023/05/25 09:29:50;;;;;;;4.40;3.30;;;;;;;23.70;49.47;95754.96;106687;1254;22540;-73
2023/05/25 09:32:18;;;;;;;5.10;3.00;;;;;;;23.76;50.80;95758.34;106933;1275;24212;-74
2023/05/25 09:34:47;;;;;;;5.40;3.10;;;;;;;23.74;49.90;95754.73;106658;1275;22675;-74
2023/05/25 09:37:17;;;;;;;3.80;3.00;;;;;;;23.91;51.29;95757.36;106837;1275;25380;-74
2023/05/25 09:39:46;;;;;;;3.60;2.80;;;;;;;23.98;50.80;95760.60;106751;1264;22520;-74
2023/05/25 09:42:15;;;;;;;3.50;3.00;;;;;;;24.17;51.57;95763.27;106689;1275;25438;-73
2023/05/25 09:44:43;;;;;;;4.10;2.90;;;;;;;24.38;52.12;95762.52;106638;1275;22527;-74
2023/05/25 09:47:14;;;;;;;4.70;3.00;;;;;;;24.49;50.23;95768.05;106724;1275;22639;-74
2023/05/25 09:49:43;;;;;;;4.30;3.70;;;;;;;24.48;49.98;95771.02;106750;1275;25448;-74
2023/05/25 09:52:11;;;;;;;4.10;3.10;;;;;;;24.47;49.57;95771.41;106791;1275;22522;-74
2023/05/25 09:54:46;;;;;;;3.40;2.80;;;;;;;24.61;49.23;95772.08;106607;1275;22524;-74
2023/05/25 09:57:15;;;;;;;3.50;3.10;;;;;;;24.61;47.55;95767.77;106766;1275;22517;-74
2023/05/25 09:59:44;;;;;;;4.30;3.10;;;;;;;24.74;49.45;95763.61;106626;1275;26048;-74
2023/05/25 10:02:13;;;;;;;4.20;3.10;;;;;;;24.83;48.69;95764.91;106778;1275;25336;-74
2023/05/25 10:04:42;;;;;;;5.00;2.90;;;;;;;24.82;48.05;95769.10;106770;1275;22640;-74
2023/05/25 10:07:12;;;;;;;4.30;2.70;;;;;;;24.94;48.26;95760.85;106594;1275;24429;-74
2023/05/25 10:09:43;;;;;;;4.60;3.10;;;;;;;25.11;48.05;95760.55;106787;1275;24183;-74
2023/05/25 10:12:18;;;;;;;3.90;2.80;;;;;;;25.22;46.53;95760.48;106763;1275;24284;-75
2023/05/25 10:14:49;;;;;;;3.40;3.10;;;;;;;25.26;45.38;95761.42;106717;1275;22581;-75
2023/05/25 10:17:22;;;;;;;4.60;2.50;;;;;;;25.35;44.98;95760.73;106774;1275;25262;-74
2023/05/25 10:19:58;;;;;;;;;;;;;;;25.37;43.09;95758.25;106737;1275;24020;-75
2023/05/25 10:22:55;;;;;;;3.80;2.60;;;;;;;25.36;43.33;95758.52;106730;1275;24268;-76
2023/05/25 10:25:38;;;;;;;4.20;3.00;;;;;;;25.48;42.62;95753.65;106692;1275;22514;-75
2023/05/25 10:28:26;;;;;;;;;;;;;;;25.53;42.97;95753.45;106736;1275;22609;-75
2023/05/25 10:30:57;;;;;;;3.10;2.70;;;;;;;25.47;42.83;95748.70;106639;1275;24215;-75
2023/05/25 10:33:26;;;;;;;3.20;2.80;;;;;;;25.53;43.91;95748.10;106749;1275;25322;-75
2023/05/25 10:35:56;;;;;;;3.80;2.50;;;;;;;25.58;43.11;95745.13;106757;1275;23877;-75
2023/05/25 10:38:39;;;;;;;4.10;2.80;;;;;;;25.70;44.26;95739.02;106695;1275;22732;-74
2023/05/25 10:41:09;;;;;;;4.90;2.70;;;;;;;25.90;43.49;95735.85;106711;1275;22569;-73
2023/05/25 10:43:39;;;;;;;3.80;2.70;;;;;;;25.97;42.12;95729.63;106769;1275;22521;-74
2023/05/25 10:46:08;;;;;;;3.70;2.60;;;;;;;25.99;42.99;95724.35;106713;1275;24435;-74
2023/05/25 10:48:38;;;;;;;3.60;2.40;;;;;;;26.10;43.07;95727.33;106824;1275;22680;-74
2023/05/25 10:51:06;;;;;;;2.90;2.40;;;;;;;26.21;44.15;95728.64;106738;1275;25531;-74
2023/05/25 10:53:46;;;;;;;4.00;2.80;;;;;;;26.18;42.57;95732.33;106641;1275;25323;-74
2023/05/25 10:56:14;;;;;;;3.00;2.30;;;;;;;26.09;41.66;95732.02;106658;1275;22524;-74
2023/05/25 10:58:45;;;;;;;3.80;2.10;;;;;;;26.18;42.15;95738.23;106723;1275;22529;-74
2023/05/25 11:01:14;;;;;;;3.10;2.30;;;;;;;26.25;40.62;95729.76;106701;1275;24378;-74
2023/05/25 11:03:43;;;;;;;5.10;2.80;;;;;;;26.37;41.81;95732.42;106750;1275;25395;-74
2023/05/25 11:06:44;;;;;;;4.50;2.10;;;;;;;26.48;41.58;95734.75;106753;1275;22495;-74
2023/05/25 11:09:32;;;;;;;5.20;2.20;;;;;;;26.67;42.22;95729.15;106490;1275;25265;-74
2023/05/25 11:12:02;;;;;;;3.10;2.60;;;;;;;26.77;39.88;95726.84;106672;1275;25333;-74
2023/05/25 11:14:38;;;;;;;2.70;2.20;;;;;;;26.72;40.19;95724.42;106725;1275;22507;-74
2023/05/25 11:17:13;;;;;;;8.20;2.50;;;;;;;26.77;40.76;95721.66;106580;1275;23276;-74
2023/05/25 11:19:51;;;;;;;3.00;2.30;;;;;;;26.94;40.30;95725.50;106725;1275;25309;-74
2023/05/25 11:22:30;;;;;;;6.20;2.40;;;;;;;27.04;39.04;95720.00;106739;1275;22629;-75
2023/05/25 11:25:01;;;;;;;3.40;2.30;;;;;;;27.03;40.54;95717.20;106765;1275;23014;-75
2023/05/25 11:27:30;;;;;;;3.00;2.50;;;;;;;27.07;39.63;95715.98;106706;1275;22518;-74
2023/05/25 11:29:59;;;;;;;2.50;2.20;;;;;;;27.11;39.18;95711.83;106727;1275;24259;-72
2023/05/25 11:32:28;;;;;;;3.80;2.80;;;;;;;27.10;39.69;95703.98;106798;1254;22546;-75
2023/05/25 11:34:57;;;;;;;3.30;2.40;;;;;;;27.16;40.00;95700.60;106613;1275;22531;-74
2023/05/25 11:37:29;;;;;;;3.40;2.40;;;;;;;27.32;40.74;95699.13;106768;1275;22585;-75
2023/05/25 11:39:58;;;;;;;3.30;2.50;;;;;;;27.48;39.41;95700.32;106762;1275;22533;-75
2023/05/25 11:42:27;;;;;;;3.20;2.50;;;;;;;27.41;38.38;95695.24;106654;1275;24290;-75